sensor_id;sensor_type;location;lat;lon;timestamp;P1;durP1;ratioP1;P2;durP2;ratioP2
12218;SDS011;6172;42.646;23.344;2023-02-10T00:02:04;33.20;;;15.23;;
12218;SDS011;6172;42.646;23.344;2023-02-10T00:04:35;28.90;;;14.07;;
12218;SDS011;6172;42.646;23.344;2023-02-10T00:07:02;26.13;;;13.43;;
12218;SDS011;6172;42.646;23.344;2023-02-10T00:09:33;24.50;;;13.10;;
12218;SDS011;6172;42.646;23.344;2023-02-10T00:12:01;31.63;;;13.97;;
12218;SDS011;6172;42.646;23.344;2023-02-10T00:14:36;32.43;;;13.30;;
12218;SDS011;6172;42.646;23.344;2023-02-10T00:17:09;29.70;;;13.17;;
12218;SDS011;6172;42.646;23.344;2023-02-10T00:19:38;25.70;;;12.33;;
12218;SDS011;6172;42.646;23.344;2023-02-10T00:22:11;27.27;;;13.00;;
12218;SDS011;6172;42.646;23.344;2023-02-10T00:24:38;24.77;;;11.97;;
12218;SDS011;6172;42.646;23.344;2023-02-10T00:27:07;28.30;;;13.10;;
12218;SDS011;6172;42.646;23.344;2023-02-10T00:29:35;28.60;;;12.90;;
12218;SDS011;6172;42.646;23.344;2023-02-10T00:32:02;27.53;;;12.90;;
12218;SDS011;6172;42.646;23.344;2023-02-10T00:34:30;29.60;;;13.77;;
12218;SDS011;6172;42.646;23.344;2023-02-10T00:37:12;28.43;;;12.37;;
12218;SDS011;6172;42.646;23.344;2023-02-10T00:39:42;20.57;;;10.47;;
12218;SDS011;6172;42.646;23.344;2023-02-10T00:42:17;27.27;;;10.63;;
12218;SDS011;6172;42.646;23.344;2023-02-10T00:44:50;23.73;;;10.33;;
12218;SDS011;6172;42.646;23.344;2023-02-10T00:47:21;23.63;;;10.20;;
12218;SDS011;6172;42.646;23.344;2023-02-10T00:49:50;20.67;;;10.40;;
12218;SDS011;6172;42.646;23.344;2023-02-10T00:52:30;26.30;;;11.87;;
12218;SDS011;6172;42.646;23.344;2023-02-10T00:54:57;23.10;;;9.77;;
12218;SDS011;6172;42.646;23.344;2023-02-10T01:00:08;23.13;;;11.20;;
12218;SDS011;6172;42.646;23.344;2023-02-10T01:02:37;23.50;;;11.50;;
12218;SDS011;6172;42.646;23.344;2023-02-10T01:05:07;22.97;;;11.03;;
12218;SDS011;6172;42.646;23.344;2023-02-10T01:07:34;27.07;;;11.93;;
12218;SDS011;6172;42.646;23.344;2023-02-10T01:10:02;29.73;;;11.23;;
12218;SDS011;6172;42.646;23.344;2023-02-10T01:12:30;18.17;;;8.00;;
12218;SDS011;6172;42.646;23.344;2023-02-10T01:14:59;18.60;;;8.47;;
12218;SDS011;6172;42.646;23.344;2023-02-10T01:17:30;18.10;;;9.13;;
12218;SDS011;6172;42.646;23.344;2023-02-10T01:20:05;19.23;;;9.20;;
12218;SDS011;6172;42.646;23.344;2023-02-10T01:22:36;15.73;;;8.13;;
12218;SDS011;6172;42.646;23.344;2023-02-10T01:25:06;15.37;;;7.97;;
12218;SDS011;6172;42.646;23.344;2023-02-10T01:27:34;17.07;;;7.87;;
12218;SDS011;6172;42.646;23.344;2023-02-10T01:30:04;17.23;;;7.83;;
12218;SDS011;6172;42.646;23.344;2023-02-10T01:32:32;13.10;;;5.93;;
12218;SDS011;6172;42.646;23.344;2023-02-10T01:35:00;16.03;;;7.93;;
12218;SDS011;6172;42.646;23.344;2023-02-10T01:37:28;15.77;;;7.93;;
12218;SDS011;6172;42.646;23.344;2023-02-10T01:40:14;18.90;;;9.00;;
12218;SDS011;6172;42.646;23.344;2023-02-10T01:42:42;19.37;;;8.37;;
12218;SDS011;6172;42.646;23.344;2023-02-10T01:45:29;17.23;;;7.73;;
12218;SDS011;6172;42.646;23.344;2023-02-10T01:48:11;18.20;;;7.93;;
12218;SDS011;6172;42.646;23.344;2023-02-10T01:50:40;19.33;;;7.10;;
12218;SDS011;6172;42.646;23.344;2023-02-10T01:53:14;15.43;;;6.60;;
12218;SDS011;6172;42.646;23.344;2023-02-10T01:55:44;16.20;;;7.50;;
12218;SDS011;6172;42.646;23.344;2023-02-10T01:58:15;14.97;;;6.87;;
12218;SDS011;6172;42.646;23.344;2023-02-10T02:03:43;14.77;;;7.23;;
12218;SDS011;6172;42.646;23.344;2023-02-10T02:06:28;15.30;;;6.67;;
12218;SDS011;6172;42.646;23.344;2023-02-10T02:08:56;14.53;;;6.83;;
12218;SDS011;6172;42.646;23.344;2023-02-10T02:11:24;11.33;;;5.80;;
12218;SDS011;6172;42.646;23.344;2023-02-10T02:14:26;14.33;;;6.10;;
12218;SDS011;6172;42.646;23.344;2023-02-10T02:17:09;14.30;;;6.27;;
12218;SDS011;6172;42.646;23.344;2023-02-10T02:19:52;13.20;;;6.23;;
12218;SDS011;6172;42.646;23.344;2023-02-10T02:35:07;16.50;;;6.17;;
12218;SDS011;6172;42.646;23.344;2023-02-10T02:37:40;21.73;;;9.13;;
12218;SDS011;6172;42.646;23.344;2023-02-10T02:40:44;16.13;;;8.73;;
12218;SDS011;6172;42.646;23.344;2023-02-10T02:43:20;20.70;;;10.10;;
12218;SDS011;6172;42.646;23.344;2023-02-10T02:45:55;25.63;;;11.87;;
12218;SDS011;6172;42.646;23.344;2023-02-10T02:48:52;22.30;;;12.03;;
12218;SDS011;6172;42.646;23.344;2023-02-10T02:54:24;29.27;;;12.20;;
12218;SDS011;6172;42.646;23.344;2023-02-10T02:57:07;24.50;;;12.77;;
12218;SDS011;6172;42.646;23.344;2023-02-10T02:59:47;29.77;;;13.30;;
12218;SDS011;6172;42.646;23.344;2023-02-10T03:02:25;32.10;;;14.33;;
12218;SDS011;6172;42.646;23.344;2023-02-10T03:05:17;31.10;;;14.17;;
12218;SDS011;6172;42.646;23.344;2023-02-10T03:22:45;36.50;;;15.93;;
12218;SDS011;6172;42.646;23.344;2023-02-10T04:52:13;31.33;;;13.50;;
12218;SDS011;6172;42.646;23.344;2023-02-10T05:26:51;31.67;;;13.70;;
12218;SDS011;6172;42.646;23.344;2023-02-10T05:29:40;29.93;;;14.80;;
12218;SDS011;6172;42.646;23.344;2023-02-10T05:33:03;33.37;;;14.00;;
12218;SDS011;6172;42.646;23.344;2023-02-10T05:35:47;27.40;;;13.70;;
12218;SDS011;6172;42.646;23.344;2023-02-10T05:38:33;26.87;;;14.27;;
12218;SDS011;6172;42.646;23.344;2023-02-10T05:41:11;37.00;;;16.80;;
12218;SDS011;6172;42.646;23.344;2023-02-10T06:20:29;29.67;;;13.13;;
12218;SDS011;6172;42.646;23.344;2023-02-10T06:22:57;25.27;;;12.70;;
12218;SDS011;6172;42.646;23.344;2023-02-10T06:25:38;33.13;;;13.43;;
12218;SDS011;6172;42.646;23.344;2023-02-10T06:28:11;24.67;;;11.83;;
12218;SDS011;6172;42.646;23.344;2023-02-10T06:30:42;25.27;;;11.57;;
12218;SDS011;6172;42.646;23.344;2023-02-10T06:33:28;31.50;;;13.20;;
12218;SDS011;6172;42.646;23.344;2023-02-10T06:42:29;24.73;;;12.30;;
12218;SDS011;6172;42.646;23.344;2023-02-10T06:44:56;26.37;;;12.60;;
12218;SDS011;6172;42.646;23.344;2023-02-10T06:47:37;32.00;;;14.23;;
12218;SDS011;6172;42.646;23.344;2023-02-10T06:50:05;30.57;;;14.33;;
12218;SDS011;6172;42.646;23.344;2023-02-10T06:52:34;28.67;;;15.27;;
12218;SDS011;6172;42.646;23.344;2023-02-10T06:55:03;25.70;;;14.63;;
12218;SDS011;6172;42.646;23.344;2023-02-10T06:57:31;33.97;;;14.90;;
12218;SDS011;6172;42.646;23.344;2023-02-10T06:59:58;32.80;;;14.97;;
12218;SDS011;6172;42.646;23.344;2023-02-10T07:02:26;32.13;;;15.13;;
12218;SDS011;6172;42.646;23.344;2023-02-10T07:04:56;32.27;;;15.43;;
12218;SDS011;6172;42.646;23.344;2023-02-10T07:07:23;32.50;;;16.23;;
12218;SDS011;6172;42.646;23.344;2023-02-10T07:09:57;33.17;;;17.57;;
12218;SDS011;6172;42.646;23.344;2023-02-10T07:12:24;35.57;;;17.23;;
12218;SDS011;6172;42.646;23.344;2023-02-10T07:14:55;40.13;;;16.73;;
12218;SDS011;6172;42.646;23.344;2023-02-10T07:17:27;32.97;;;16.67;;
12218;SDS011;6172;42.646;23.344;2023-02-10T07:20:41;36.77;;;16.87;;
12218;SDS011;6172;42.646;23.344;2023-02-10T07:23:36;34.97;;;16.70;;
12218;SDS011;6172;42.646;23.344;2023-02-10T07:29:59;36.57;;;17.60;;
12218;SDS011;6172;42.646;23.344;2023-02-10T07:32:34;39.00;;;15.57;;
12218;SDS011;6172;42.646;23.344;2023-02-10T07:35:33;30.17;;;15.80;;
12218;SDS011;6172;42.646;23.344;2023-02-10T07:38:09;32.00;;;17.97;;
12218;SDS011;6172;42.646;23.344;2023-02-10T07:40:39;33.80;;;18.17;;
12218;SDS011;6172;42.646;23.344;2023-02-10T07:43:19;36.57;;;19.33;;
12218;SDS011;6172;42.646;23.344;2023-02-10T07:46:00;38.40;;;18.03;;
12218;SDS011;6172;42.646;23.344;2023-02-10T07:48:49;38.20;;;18.00;;
12218;SDS011;6172;42.646;23.344;2023-02-10T07:51:22;33.90;;;17.33;;
12218;SDS011;6172;42.646;23.344;2023-02-10T07:53:57;38.60;;;19.73;;
12218;SDS011;6172;42.646;23.344;2023-02-10T07:56:33;38.83;;;19.77;;
12218;SDS011;6172;42.646;23.344;2023-02-10T07:59:05;37.77;;;18.43;;
12218;SDS011;6172;42.646;23.344;2023-02-10T08:01:36;36.07;;;18.07;;
12218;SDS011;6172;42.646;23.344;2023-02-10T08:04:07;32.97;;;16.43;;
12218;SDS011;6172;42.646;23.344;2023-02-10T08:06:43;31.87;;;16.73;;
12218;SDS011;6172;42.646;23.344;2023-02-10T08:09:38;32.83;;;16.37;;
12218;SDS011;6172;42.646;23.344;2023-02-10T08:12:29;35.13;;;18.83;;
12218;SDS011;6172;42.646;23.344;2023-02-10T08:14:59;32.20;;;17.07;;
12218;SDS011;6172;42.646;23.344;2023-02-10T08:17:27;31.43;;;17.07;;
12218;SDS011;6172;42.646;23.344;2023-02-10T08:19:57;30.63;;;18.40;;
12218;SDS011;6172;42.646;23.344;2023-02-10T08:22:25;30.07;;;17.67;;
12218;SDS011;6172;42.646;23.344;2023-02-10T08:25:00;35.37;;;16.47;;
12218;SDS011;6172;42.646;23.344;2023-02-10T08:27:44;29.63;;;16.07;;
12218;SDS011;6172;42.646;23.344;2023-02-10T08:30:13;28.10;;;15.77;;
12218;SDS011;6172;42.646;23.344;2023-02-10T08:32:40;29.43;;;16.00;;
12218;SDS011;6172;42.646;23.344;2023-02-10T08:35:08;28.70;;;15.30;;
12218;SDS011;6172;42.646;23.344;2023-02-10T08:37:37;31.97;;;15.87;;
12218;SDS011;6172;42.646;23.344;2023-02-10T08:40:05;33.73;;;18.90;;
12218;SDS011;6172;42.646;23.344;2023-02-10T08:42:32;35.50;;;18.77;;
12218;SDS011;6172;42.646;23.344;2023-02-10T08:45:00;29.57;;;15.50;;
12218;SDS011;6172;42.646;23.344;2023-02-10T08:47:29;27.93;;;14.57;;
12218;SDS011;6172;42.646;23.344;2023-02-10T08:49:56;30.07;;;16.00;;
12218;SDS011;6172;42.646;23.344;2023-02-10T08:52:23;26.30;;;15.13;;
12218;SDS011;6172;42.646;23.344;2023-02-10T08:54:53;27.53;;;15.70;;
12218;SDS011;6172;42.646;23.344;2023-02-10T08:57:21;23.73;;;14.33;;
12218;SDS011;6172;42.646;23.344;2023-02-10T08:59:50;26.63;;;14.80;;
12218;SDS011;6172;42.646;23.344;2023-02-10T09:02:17;26.37;;;14.47;;
12218;SDS011;6172;42.646;23.344;2023-02-10T09:04:46;30.90;;;14.87;;
12218;SDS011;6172;42.646;23.344;2023-02-10T09:07:15;25.47;;;14.83;;
12218;SDS011;6172;42.646;23.344;2023-02-10T09:09:46;25.93;;;14.43;;
12218;SDS011;6172;42.646;23.344;2023-02-10T09:12:15;31.67;;;13.90;;
12218;SDS011;6172;42.646;23.344;2023-02-10T09:14:56;28.23;;;14.77;;
12218;SDS011;6172;42.646;23.344;2023-02-10T09:17:27;26.57;;;14.43;;
12218;SDS011;6172;42.646;23.344;2023-02-10T09:19:56;29.13;;;14.20;;
12218;SDS011;6172;42.646;23.344;2023-02-10T09:22:23;28.80;;;14.67;;
12218;SDS011;6172;42.646;23.344;2023-02-10T09:24:50;27.90;;;14.07;;
12218;SDS011;6172;42.646;23.344;2023-02-10T09:27:19;25.53;;;14.00;;
12218;SDS011;6172;42.646;23.344;2023-02-10T09:29:47;25.40;;;14.43;;
12218;SDS011;6172;42.646;23.344;2023-02-10T09:32:14;27.57;;;15.07;;
12218;SDS011;6172;42.646;23.344;2023-02-10T09:34:40;24.63;;;13.50;;
12218;SDS011;6172;42.646;23.344;2023-02-10T09:37:11;27.30;;;14.07;;
12218;SDS011;6172;42.646;23.344;2023-02-10T09:39:41;26.23;;;14.03;;
12218;SDS011;6172;42.646;23.344;2023-02-10T09:42:09;27.50;;;15.33;;
12218;SDS011;6172;42.646;23.344;2023-02-10T09:44:50;26.53;;;13.43;;
12218;SDS011;6172;42.646;23.344;2023-02-10T09:47:25;25.83;;;13.53;;
12218;SDS011;6172;42.646;23.344;2023-02-10T09:50:14;25.80;;;13.07;;
12218;SDS011;6172;42.646;23.344;2023-02-10T09:53:01;24.67;;;12.67;;
12218;SDS011;6172;42.646;23.344;2023-02-10T09:55:36;21.27;;;11.90;;
12218;SDS011;6172;42.646;23.344;2023-02-10T09:58:06;21.63;;;12.77;;
12218;SDS011;6172;42.646;23.344;2023-02-10T10:00:44;29.27;;;13.30;;
12218;SDS011;6172;42.646;23.344;2023-02-10T10:03:14;21.70;;;12.20;;
12218;SDS011;6172;42.646;23.344;2023-02-10T10:05:45;26.10;;;12.70;;
12218;SDS011;6172;42.646;23.344;2023-02-10T10:08:24;27.90;;;13.30;;
12218;SDS011;6172;42.646;23.344;2023-02-10T10:11:00;19.80;;;11.60;;
12218;SDS011;6172;42.646;23.344;2023-02-10T10:13:32;28.07;;;11.50;;
12218;SDS011;6172;42.646;23.344;2023-02-10T10:16:17;22.37;;;11.27;;
12218;SDS011;6172;42.646;23.344;2023-02-10T10:18:57;24.07;;;11.40;;
12218;SDS011;6172;42.646;23.344;2023-02-10T10:21:35;23.33;;;11.70;;
12218;SDS011;6172;42.646;23.344;2023-02-10T10:24:17;25.97;;;11.73;;
12218;SDS011;6172;42.646;23.344;2023-02-10T10:26:58;23.67;;;10.67;;
12218;SDS011;6172;42.646;23.344;2023-02-10T10:29:39;22.63;;;11.60;;
12218;SDS011;6172;42.646;23.344;2023-02-10T10:32:14;23.33;;;11.60;;
12218;SDS011;6172;42.646;23.344;2023-02-10T10:34:45;21.90;;;10.70;;
12218;SDS011;6172;42.646;23.344;2023-02-10T10:37:18;25.17;;;12.00;;
12218;SDS011;6172;42.646;23.344;2023-02-10T10:39:49;21.40;;;12.47;;
12218;SDS011;6172;42.646;23.344;2023-02-10T10:42:23;23.03;;;12.70;;
12218;SDS011;6172;42.646;23.344;2023-02-10T10:44:56;25.90;;;13.47;;
12218;SDS011;6172;42.646;23.344;2023-02-10T10:47:29;26.23;;;13.50;;
12218;SDS011;6172;42.646;23.344;2023-02-10T10:50:05;25.07;;;13.47;;
12218;SDS011;6172;42.646;23.344;2023-02-10T10:52:33;29.17;;;14.27;;
12218;SDS011;6172;42.646;23.344;2023-02-10T10:55:05;23.33;;;13.00;;
12218;SDS011;6172;42.646;23.344;2023-02-10T10:57:36;22.97;;;13.63;;
12218;SDS011;6172;42.646;23.344;2023-02-10T11:00:05;25.80;;;13.43;;
12218;SDS011;6172;42.646;23.344;2023-02-10T11:02:50;21.83;;;12.23;;
12218;SDS011;6172;42.646;23.344;2023-02-10T11:05:20;27.63;;;13.20;;
12218;SDS011;6172;42.646;23.344;2023-02-10T11:07:48;28.20;;;13.60;;
12218;SDS011;6172;42.646;23.344;2023-02-10T11:10:21;22.40;;;12.57;;
12218;SDS011;6172;42.646;23.344;2023-02-10T11:12:50;25.93;;;12.67;;
12218;SDS011;6172;42.646;23.344;2023-02-10T11:15:31;24.57;;;13.77;;
12218;SDS011;6172;42.646;23.344;2023-02-10T11:18:02;22.57;;;12.67;;
12218;SDS011;6172;42.646;23.344;2023-02-10T11:20:33;25.77;;;13.10;;
12218;SDS011;6172;42.646;23.344;2023-02-10T11:23:02;30.03;;;14.77;;
12218;SDS011;6172;42.646;23.344;2023-02-10T11:25:39;25.07;;;13.97;;
12218;SDS011;6172;42.646;23.344;2023-02-10T11:28:14;24.67;;;14.27;;
12218;SDS011;6172;42.646;23.344;2023-02-10T11:30:46;27.37;;;16.13;;
12218;SDS011;6172;42.646;23.344;2023-02-10T11:33:21;29.80;;;14.17;;
12218;SDS011;6172;42.646;23.344;2023-02-10T11:35:52;29.93;;;15.60;;
12218;SDS011;6172;42.646;23.344;2023-02-10T11:38:24;25.53;;;13.77;;
12218;SDS011;6172;42.646;23.344;2023-02-10T11:40:55;25.70;;;15.13;;
12218;SDS011;6172;42.646;23.344;2023-02-10T11:43:25;25.63;;;14.17;;
12218;SDS011;6172;42.646;23.344;2023-02-10T11:45:57;27.77;;;14.57;;
12218;SDS011;6172;42.646;23.344;2023-02-10T11:48:26;28.20;;;14.60;;
12218;SDS011;6172;42.646;23.344;2023-02-10T11:51:01;32.33;;;16.07;;
12218;SDS011;6172;42.646;23.344;2023-02-10T11:53:31;34.63;;;15.17;;
12218;SDS011;6172;42.646;23.344;2023-02-10T11:56:05;27.93;;;15.20;;
12218;SDS011;6172;42.646;23.344;2023-02-10T11:58:48;27.83;;;14.50;;
12218;SDS011;6172;42.646;23.344;2023-02-10T12:01:31;28.97;;;15.67;;
12218;SDS011;6172;42.646;23.344;2023-02-10T12:04:14;24.33;;;13.67;;
12218;SDS011;6172;42.646;23.344;2023-02-10T12:06:54;21.67;;;13.07;;
12218;SDS011;6172;42.646;23.344;2023-02-10T12:09:30;25.90;;;13.03;;
12218;SDS011;6172;42.646;23.344;2023-02-10T12:12:08;24.60;;;13.80;;
12218;SDS011;6172;42.646;23.344;2023-02-10T12:14:45;24.10;;;14.10;;
12218;SDS011;6172;42.646;23.344;2023-02-10T12:17:23;21.90;;;14.13;;
12218;SDS011;6172;42.646;23.344;2023-02-10T12:22:57;26.80;;;13.87;;
12218;SDS011;6172;42.646;23.344;2023-02-10T12:25:37;23.67;;;13.37;;
12218;SDS011;6172;42.646;23.344;2023-02-10T12:28:13;25.67;;;15.10;;
12218;SDS011;6172;42.646;23.344;2023-02-10T12:30:48;26.87;;;13.93;;
12218;SDS011;6172;42.646;23.344;2023-02-10T12:33:25;24.53;;;13.13;;
12218;SDS011;6172;42.646;23.344;2023-02-10T12:36:08;25.03;;;13.83;;
12218;SDS011;6172;42.646;23.344;2023-02-10T12:38:45;26.60;;;14.47;;
12218;SDS011;6172;42.646;23.344;2023-02-10T12:41:23;23.40;;;12.83;;
12218;SDS011;6172;42.646;23.344;2023-02-10T12:46:58;23.57;;;14.50;;
12218;SDS011;6172;42.646;23.344;2023-02-10T12:49:37;31.73;;;14.47;;
12218;SDS011;6172;42.646;23.344;2023-02-10T12:52:16;24.63;;;14.13;;
12218;SDS011;6172;42.646;23.344;2023-02-10T12:54:50;22.50;;;13.57;;
12218;SDS011;6172;42.646;23.344;2023-02-10T12:57:22;24.67;;;14.63;;
12218;SDS011;6172;42.646;23.344;2023-02-10T12:59:55;26.83;;;14.20;;
12218;SDS011;6172;42.646;23.344;2023-02-10T13:02:27;22.60;;;13.27;;
12218;SDS011;6172;42.646;23.344;2023-02-10T13:05:04;23.87;;;14.43;;
12218;SDS011;6172;42.646;23.344;2023-02-10T13:07:36;29.90;;;14.07;;
12218;SDS011;6172;42.646;23.344;2023-02-10T13:10:16;29.20;;;14.40;;
12218;SDS011;6172;42.646;23.344;2023-02-10T13:12:48;22.73;;;14.13;;
12218;SDS011;6172;42.646;23.344;2023-02-10T13:15:23;27.97;;;14.37;;
12218;SDS011;6172;42.646;23.344;2023-02-10T13:17:54;26.23;;;13.67;;
12218;SDS011;6172;42.646;23.344;2023-02-10T13:20:27;33.33;;;13.70;;
12218;SDS011;6172;42.646;23.344;2023-02-10T13:23:03;19.23;;;12.53;;
12218;SDS011;6172;42.646;23.344;2023-02-10T13:25:39;23.97;;;13.63;;
12218;SDS011;6172;42.646;23.344;2023-02-10T13:28:17;26.93;;;13.50;;
12218;SDS011;6172;42.646;23.344;2023-02-10T13:30:54;23.60;;;12.73;;
12218;SDS011;6172;42.646;23.344;2023-02-10T13:33:31;25.13;;;14.00;;
12218;SDS011;6172;42.646;23.344;2023-02-10T13:36:09;23.07;;;13.20;;
12218;SDS011;6172;42.646;23.344;2023-02-10T13:38:40;25.27;;;14.03;;
12218;SDS011;6172;42.646;23.344;2023-02-10T13:41:16;25.60;;;14.13;;
12218;SDS011;6172;42.646;23.344;2023-02-10T13:44:16;30.13;;;13.27;;
12218;SDS011;6172;42.646;23.344;2023-02-10T13:46:57;23.77;;;13.10;;
12218;SDS011;6172;42.646;23.344;2023-02-10T13:49:38;22.97;;;13.27;;
12218;SDS011;6172;42.646;23.344;2023-02-10T13:52:16;23.87;;;13.70;;
12218;SDS011;6172;42.646;23.344;2023-02-10T13:54:53;24.73;;;13.70;;
12218;SDS011;6172;42.646;23.344;2023-02-10T13:57:25;25.20;;;13.73;;
12218;SDS011;6172;42.646;23.344;2023-02-10T14:00:04;26.80;;;13.17;;
12218;SDS011;6172;42.646;23.344;2023-02-10T14:02:40;23.30;;;13.07;;
12218;SDS011;6172;42.646;23.344;2023-02-10T14:05:20;23.80;;;13.47;;
12218;SDS011;6172;42.646;23.344;2023-02-10T14:07:50;23.83;;;13.50;;
12218;SDS011;6172;42.646;23.344;2023-02-10T14:10:31;23.00;;;13.47;;
12218;SDS011;6172;42.646;23.344;2023-02-10T14:13:01;25.43;;;14.10;;
12218;SDS011;6172;42.646;23.344;2023-02-10T14:15:31;26.63;;;13.57;;
12218;SDS011;6172;42.646;23.344;2023-02-10T14:20:54;23.23;;;15.17;;
12218;SDS011;6172;42.646;23.344;2023-02-10T14:23:22;29.03;;;15.03;;
12218;SDS011;6172;42.646;23.344;2023-02-10T14:25:54;28.70;;;15.20;;
12218;SDS011;6172;42.646;23.344;2023-02-10T14:28:23;28.43;;;15.10;;
12218;SDS011;6172;42.646;23.344;2023-02-10T14:30:53;29.43;;;14.83;;
12218;SDS011;6172;42.646;23.344;2023-02-10T14:33:26;24.73;;;15.03;;
12218;SDS011;6172;42.646;23.344;2023-02-10T14:35:54;24.27;;;14.70;;
12218;SDS011;6172;42.646;23.344;2023-02-10T14:38:23;26.10;;;15.27;;
12218;SDS011;6172;42.646;23.344;2023-02-10T14:40:53;28.63;;;15.37;;
12218;SDS011;6172;42.646;23.344;2023-02-10T14:43:23;28.00;;;15.47;;
12218;SDS011;6172;42.646;23.344;2023-02-10T14:45:54;29.30;;;15.87;;
12218;SDS011;6172;42.646;23.344;2023-02-10T14:48:23;29.93;;;16.17;;
12218;SDS011;6172;42.646;23.344;2023-02-10T14:50:56;31.63;;;16.70;;
12218;SDS011;6172;42.646;23.344;2023-02-10T14:53:25;38.93;;;17.97;;
12218;SDS011;6172;42.646;23.344;2023-02-10T14:55:53;35.17;;;16.87;;
12218;SDS011;6172;42.646;23.344;2023-02-10T14:58:21;31.63;;;18.13;;
12218;SDS011;6172;42.646;23.344;2023-02-10T15:00:53;32.50;;;18.10;;
12218;SDS011;6172;42.646;23.344;2023-02-10T15:03:28;37.80;;;19.20;;
12218;SDS011;6172;42.646;23.344;2023-02-10T15:05:57;31.87;;;17.20;;
12218;SDS011;6172;42.646;23.344;2023-02-10T15:08:29;36.57;;;17.73;;
12218;SDS011;6172;42.646;23.344;2023-02-10T15:11:01;32.27;;;17.20;;
12218;SDS011;6172;42.646;23.344;2023-02-10T15:13:31;29.70;;;17.33;;
12218;SDS011;6172;42.646;23.344;2023-02-10T15:16:01;32.07;;;17.20;;
12218;SDS011;6172;42.646;23.344;2023-02-10T15:18:30;32.37;;;17.23;;
12218;SDS011;6172;42.646;23.344;2023-02-10T15:21:00;31.50;;;17.50;;
12218;SDS011;6172;42.646;23.344;2023-02-10T15:23:29;33.77;;;16.43;;
12218;SDS011;6172;42.646;23.344;2023-02-10T15:26:03;33.80;;;17.47;;
12218;SDS011;6172;42.646;23.344;2023-02-10T15:28:33;33.03;;;17.60;;
12218;SDS011;6172;42.646;23.344;2023-02-10T15:31:02;37.60;;;18.63;;
12218;SDS011;6172;42.646;23.344;2023-02-10T15:33:33;39.13;;;18.13;;
12218;SDS011;6172;42.646;23.344;2023-02-10T15:36:11;35.43;;;18.27;;
12218;SDS011;6172;42.646;23.344;2023-02-10T15:38:43;35.10;;;19.23;;
12218;SDS011;6172;42.646;23.344;2023-02-10T15:41:28;34.97;;;18.03;;
12218;SDS011;6172;42.646;23.344;2023-02-10T15:44:20;32.47;;;16.50;;
12218;SDS011;6172;42.646;23.344;2023-02-10T15:46:54;38.33;;;17.73;;
12218;SDS011;6172;42.646;23.344;2023-02-10T15:49:41;29.70;;;16.33;;
12218;SDS011;6172;42.646;23.344;2023-02-10T15:52:09;30.97;;;16.60;;
12218;SDS011;6172;42.646;23.344;2023-02-10T15:54:39;28.47;;;16.23;;
12218;SDS011;6172;42.646;23.344;2023-02-10T15:57:09;34.83;;;17.23;;
12218;SDS011;6172;42.646;23.344;2023-02-10T15:59:40;32.93;;;16.43;;
12218;SDS011;6172;42.646;23.344;2023-02-10T16:02:15;30.70;;;17.10;;
12218;SDS011;6172;42.646;23.344;2023-02-10T16:04:46;33.77;;;17.13;;
12218;SDS011;6172;42.646;23.344;2023-02-10T16:07:14;30.23;;;16.37;;
12218;SDS011;6172;42.646;23.344;2023-02-10T16:09:45;33.00;;;17.17;;
12218;SDS011;6172;42.646;23.344;2023-02-10T16:12:12;32.43;;;16.97;;
12218;SDS011;6172;42.646;23.344;2023-02-10T16:14:40;34.17;;;16.40;;
12218;SDS011;6172;42.646;23.344;2023-02-10T16:17:09;29.93;;;15.47;;
12218;SDS011;6172;42.646;23.344;2023-02-10T16:19:38;28.90;;;15.47;;
12218;SDS011;6172;42.646;23.344;2023-02-10T16:22:07;30.87;;;16.00;;
12218;SDS011;6172;42.646;23.344;2023-02-10T16:24:35;35.67;;;16.83;;
12218;SDS011;6172;42.646;23.344;2023-02-10T16:27:02;30.57;;;16.57;;
12218;SDS011;6172;42.646;23.344;2023-02-10T16:29:33;40.07;;;17.07;;
12218;SDS011;6172;42.646;23.344;2023-02-10T16:32:00;32.20;;;16.03;;
12218;SDS011;6172;42.646;23.344;2023-02-10T16:34:28;35.03;;;18.10;;
12218;SDS011;6172;42.646;23.344;2023-02-10T16:36:55;34.90;;;16.90;;
12218;SDS011;6172;42.646;23.344;2023-02-10T16:39:27;34.00;;;17.80;;
12218;SDS011;6172;42.646;23.344;2023-02-10T16:41:55;38.87;;;18.00;;
12218;SDS011;6172;42.646;23.344;2023-02-10T16:44:23;32.60;;;16.80;;
12218;SDS011;6172;42.646;23.344;2023-02-10T16:46:50;33.33;;;15.87;;
12218;SDS011;6172;42.646;23.344;2023-02-10T16:49:22;28.83;;;15.87;;
12218;SDS011;6172;42.646;23.344;2023-02-10T16:51:49;35.93;;;16.13;;
12218;SDS011;6172;42.646;23.344;2023-02-10T16:54:19;33.77;;;15.33;;
12218;SDS011;6172;42.646;23.344;2023-02-10T16:56:50;33.00;;;15.23;;
12218;SDS011;6172;42.646;23.344;2023-02-10T16:59:18;31.20;;;15.40;;
12218;SDS011;6172;42.646;23.344;2023-02-10T17:01:45;33.47;;;15.73;;
12218;SDS011;6172;42.646;23.344;2023-02-10T17:04:12;27.53;;;14.33;;
12218;SDS011;6172;42.646;23.344;2023-02-10T17:06:41;29.57;;;15.63;;
12218;SDS011;6172;42.646;23.344;2023-02-10T17:09:15;34.90;;;18.07;;
12218;SDS011;6172;42.646;23.344;2023-02-10T17:11:43;36.87;;;17.40;;
12218;SDS011;6172;42.646;23.344;2023-02-10T17:14:13;42.60;;;20.63;;
12218;SDS011;6172;42.646;23.344;2023-02-10T17:16:45;38.97;;;18.77;;
12218;SDS011;6172;42.646;23.344;2023-02-10T17:19:18;33.20;;;17.53;;
12218;SDS011;6172;42.646;23.344;2023-02-10T17:21:46;33.97;;;17.50;;
12218;SDS011;6172;42.646;23.344;2023-02-10T17:24:14;35.07;;;17.90;;
12218;SDS011;6172;42.646;23.344;2023-02-10T17:26:41;34.00;;;16.80;;
12218;SDS011;6172;42.646;23.344;2023-02-10T17:29:14;34.23;;;16.43;;
12218;SDS011;6172;42.646;23.344;2023-02-10T17:31:48;31.30;;;15.73;;
12218;SDS011;6172;42.646;23.344;2023-02-10T17:34:16;29.47;;;15.37;;
12218;SDS011;6172;42.646;23.344;2023-02-10T17:36:44;28.93;;;15.37;;
12218;SDS011;6172;42.646;23.344;2023-02-10T17:39:13;28.50;;;15.67;;
12218;SDS011;6172;42.646;23.344;2023-02-10T17:41:58;28.67;;;14.63;;
12218;SDS011;6172;42.646;23.344;2023-02-10T17:44:26;27.80;;;15.00;;
12218;SDS011;6172;42.646;23.344;2023-02-10T17:46:54;30.63;;;14.83;;
12218;SDS011;6172;42.646;23.344;2023-02-10T17:49:22;31.43;;;14.10;;
12218;SDS011;6172;42.646;23.344;2023-02-10T17:51:51;28.87;;;13.53;;
12218;SDS011;6172;42.646;23.344;2023-02-10T17:54:18;28.23;;;13.77;;
12218;SDS011;6172;42.646;23.344;2023-02-10T17:56:46;25.60;;;14.37;;
12218;SDS011;6172;42.646;23.344;2023-02-10T17:59:14;44.20;;;15.53;;
12218;SDS011;6172;42.646;23.344;2023-02-10T18:01:45;27.30;;;14.17;;
12218;SDS011;6172;42.646;23.344;2023-02-10T18:04:15;29.00;;;15.13;;
12218;SDS011;6172;42.646;23.344;2023-02-10T18:06:42;31.67;;;16.67;;
12218;SDS011;6172;42.646;23.344;2023-02-10T18:09:09;38.20;;;16.90;;
12218;SDS011;6172;42.646;23.344;2023-02-10T18:11:37;36.37;;;19.10;;
12218;SDS011;6172;42.646;23.344;2023-02-10T18:14:14;37.77;;;17.03;;
12218;SDS011;6172;42.646;23.344;2023-02-10T18:16:48;30.70;;;16.60;;
12218;SDS011;6172;42.646;23.344;2023-02-10T18:19:21;37.90;;;16.73;;
12218;SDS011;6172;42.646;23.344;2023-02-10T18:21:50;29.97;;;15.07;;
12218;SDS011;6172;42.646;23.344;2023-02-10T18:24:18;34.97;;;14.67;;
12218;SDS011;6172;42.646;23.344;2023-02-10T18:26:46;32.87;;;15.13;;
12218;SDS011;6172;42.646;23.344;2023-02-10T18:29:15;29.43;;;15.57;;
12218;SDS011;6172;42.646;23.344;2023-02-10T18:31:45;28.90;;;15.30;;